Time;durP1;ratioP1;P1;durP2;ratioP2;P2;SDS_P1;SDS_P2;PMS_P1;PMS_P2;Temp;Humidity;BMP_temperature;BMP_pressure;BME280_temperature;BME280_humidity;BME280_pressure;Samples;Min_cycle;Max_cycle;Signal;HPM_P1;HPM_P2
2021/03/19 00:01:08;;;;;;;0.85;0.30;;;20.50;38.40;;;;;;5043192;28;20044;-83
2021/03/19 00:03:33;;;;;;;0.70;0.20;;;20.50;38.40;;;;;;5042011;28;20071;-84
2021/03/19 00:05:59;;;;;;;1.10;0.40;;;20.40;38.40;;;;;;5066876;28;20037;-83
2021/03/19 00:08:25;;;;;;;2.13;0.30;;;20.40;38.30;;;;;;5042785;28;20051;-82
2021/03/19 00:10:52;;;;;;;2.35;0.32;;;20.40;38.30;;;;;;5038174;28;20045;-84
2021/03/19 00:13:17;;;;;;;0.90;0.20;;;20.40;38.30;;;;;;5045985;28;20036;-84
2021/03/19 00:15:43;;;;;;;1.05;0.30;;;20.40;38.30;;;;;;5040320;28;20090;-83
2021/03/19 00:18:09;;;;;;;1.13;0.40;;;20.40;38.30;;;;;;5039240;28;20041;-83
2021/03/19 00:20:44;;;;;;;0.80;0.20;;;20.40;38.30;;;;;;5040975;28;20028;-83
2021/03/19 00:23:11;;;;;;;0.90;0.30;;;20.40;38.30;;;;;;5043023;28;20029;-83
2021/03/19 00:25:37;;;;;;;0.75;0.38;;;20.40;38.30;;;;;;5025097;28;20025;-84
2021/03/19 00:28:04;;;;;;;0.82;0.30;;;20.40;38.40;;;;;;5044258;28;20039;-83
2021/03/19 00:30:32;;;;;;;1.17;0.20;;;20.30;38.30;;;;;;5030279;28;20032;-84
2021/03/19 00:32:57;;;;;;;2.60;0.30;;;20.40;38.30;;;;;;5027543;28;20029;-85
2021/03/19 00:35:23;;;;;;;0.85;0.30;;;20.30;38.30;;;;;;5045427;28;20025;-84
2021/03/19 00:37:49;;;;;;;1.98;0.20;;;20.30;38.10;;;;;;5044624;28;20025;-85
2021/03/19 00:40:16;;;;;;;2.50;0.30;;;20.30;38.20;;;;;;5062703;28;20029;-85
2021/03/19 00:42:43;;;;;;;1.67;0.38;;;20.30;38.20;;;;;;5044724;28;20116;-83
2021/03/19 00:45:12;;;;;;;0.85;0.30;;;20.30;38.10;;;;;;5041418;28;20077;-82
2021/03/19 00:47:39;;;;;;;0.60;0.20;;;20.30;38.20;;;;;;5063103;28;20036;-86
2021/03/19 00:50:08;;;;;;;1.10;0.20;;;20.30;38.20;;;;;;5026834;28;20439;-84
2021/03/19 00:52:33;;;;;;;1.33;0.30;;;20.30;38.20;;;;;;5059064;28;20036;-83
2021/03/19 00:54:59;;;;;;;1.15;0.20;;;20.20;38.60;;;;;;5042519;28;20036;-83
2021/03/19 00:57:24;;;;;;;0.70;0.20;;;20.20;38.10;;;;;;5044664;28;20041;-83
2021/03/19 00:59:50;;;;;;;0.75;0.20;;;20.20;38.70;;;;;;5042693;28;20079;-85
2021/03/19 01:02:16;;;;;;;0.50;0.30;;;20.20;38.10;;;;;;5060473;28;20036;-84
2021/03/19 01:04:43;;;;;;;1.00;0.20;;;20.20;38.20;;;;;;5060883;28;20130;-84
2021/03/19 01:07:10;;;;;;;0.82;0.28;;;20.20;38.20;;;;;;5025637;28;20074;-85
2021/03/19 01:09:36;;;;;;;0.98;0.30;;;20.20;38.20;;;;;;5024322;28;20094;-84
2021/03/19 01:12:02;;;;;;;0.82;0.20;;;20.20;38.20;;;;;;5041912;28;20864;-84
2021/03/19 01:14:27;;;;;;;1.13;0.20;;;20.20;38.20;;;;;;5041550;28;20025;-86
2021/03/19 01:16:53;;;;;;;1.63;0.45;;;20.20;38.20;;;;;;5045380;28;20033;-87
2021/03/19 01:19:18;;;;;;;0.70;0.10;;;20.20;38.20;;;;;;5045459;28;20112;-84
2021/03/19 01:21:44;;;;;;;1.70;0.30;;;20.20;38.10;;;;;;5061521;28;20045;-83
2021/03/19 01:24:10;;;;;;;0.68;0.10;;;20.10;38.20;;;;;;5021839;28;20063;-85
2021/03/19 01:26:35;;;;;;;0.93;0.20;;;20.10;38.30;;;;;;5060620;28;20037;-82
2021/03/19 01:29:01;;;;;;;0.73;0.20;;;20.10;38.30;;;;;;5041586;28;20028;-85
2021/03/19 01:31:27;;;;;;;1.20;0.13;;;20.10;38.20;;;;;;5042419;28;20037;-84
2021/03/19 01:33:52;;;;;;;0.90;0.13;;;20.10;38.20;;;;;;5039245;28;20047;-86
2021/03/19 01:36:18;;;;;;;0.88;0.25;;;20.10;38.20;;;;;;5062271;28;20043;-84
2021/03/19 01:38:44;;;;;;;0.80;0.50;;;20.10;38.70;;;;;;5043142;28;20025;-82
2021/03/19 01:41:10;;;;;;;0.70;0.20;;;20.10;38.20;;;;;;5040570;28;20072;-83
2021/03/19 01:43:44;;;;;;;0.82;0.20;;;20.10;38.20;;;;;;5024472;28;20036;-82
2021/03/19 01:46:47;;;;;;;1.10;0.20;;;20.10;38.20;;;;;;5060170;28;20424;-84
2021/03/19 01:49:51;;;;;;;1.08;0.30;;;20.10;38.20;;;;;;5026725;28;20017;-82
2021/03/19 01:52:54;;;;;;;0.40;0.10;;;20.10;38.10;;;;;;5040284;28;20048;-84
2021/03/19 01:55:58;;;;;;;0.55;0.13;;;20.10;38.20;;;;;;5039694;28;20068;-82
2021/03/19 01:59:01;;;;;;;1.33;0.20;;;20.00;38.00;;;;;;5058355;28;20036;-82
2021/03/19 02:02:03;;;;;;;0.52;0.10;;;20.10;38.00;;;;;;5058365;28;20033;-87
2021/03/19 02:05:07;;;;;;;2.05;0.10;;;20.00;38.00;;;;;;5061837;28;20037;-84
2021/03/19 02:08:10;;;;;;;1.02;0.10;;;20.00;38.10;;;;;;5060151;28;20237;-83
2021/03/19 02:11:13;;;;;;;0.70;0.10;;;20.00;38.10;;;;;;5061727;28;20032;-84
2021/03/19 02:14:16;;;;;;;0.95;0.10;;;20.00;38.20;;;;;;5025231;28;20017;-86
2021/03/19 02:17:19;;;;;;;1.83;0.10;;;20.00;38.20;;;;;;5060213;28;20121;-83
2021/03/19 02:20:22;;;;;;;0.40;0.10;;;19.90;38.10;;;;;;5043399;28;20036;-85
2021/03/19 02:23:25;;;;;;;1.35;0.20;;;20.00;38.10;;;;;;5060275;28;20029;-83
2021/03/19 02:26:29;;;;;;;0.80;0.20;;;19.90;38.10;;;;;;5039353;28;20108;-82
2021/03/19 02:29:33;;;;;;;0.38;0.10;;;19.90;38.10;;;;;;5039984;28;20033;-84
2021/03/19 02:32:15;;;;;;;0.57;0.10;;;19.90;38.10;;;;;;5037994;28;20539;-86
2021/03/19 02:34:48;;;;;;;0.60;0.10;;;19.90;38.10;;;;;;5059466;28;20028;-83
2021/03/19 02:37:26;;;;;;;0.60;0.10;;;19.90;38.10;;;;;;5042005;28;20618;-82
2021/03/19 02:39:52;;;;;;;0.45;0.10;;;19.90;38.10;;;;;;5023985;28;20032;-84
2021/03/19 02:42:21;;;;;;;0.40;0.10;;;19.90;38.10;;;;;;5021102;28;20044;-84
2021/03/19 02:44:47;;;;;;;1.60;0.10;;;19.90;38.10;;;;;;5041796;28;20133;-82
2021/03/19 02:47:13;;;;;;;0.47;0.10;;;19.90;38.00;;;;;;5026534;28;20503;-82
2021/03/19 02:49:39;;;;;;;0.85;0.20;;;19.90;38.60;;;;;;5058840;28;20021;-82
2021/03/19 02:52:05;;;;;;;0.40;0.10;;;19.90;38.00;;;;;;5039093;28;20322;-82
2021/03/19 02:54:31;;;;;;;0.73;0.05;;;19.90;38.00;;;;;;5038539;28;20040;-84
2021/03/19 02:56:57;;;;;;;0.55;0.10;;;19.90;38.10;;;;;;5026642;28;20028;-83
2021/03/19 02:59:23;;;;;;;1.02;0.20;;;19.90;38.10;;;;;;5025336;28;20303;-84
2021/03/19 03:01:48;;;;;;;0.22;0.10;;;19.80;38.00;;;;;;5031223;28;20407;-86
2021/03/19 03:04:15;;;;;;;0.40;0.10;;;19.80;38.00;;;;;;5026810;28;20506;-83
2021/03/19 03:06:40;;;;;;;0.82;0.20;;;19.80;38.00;;;;;;5027675;28;20108;-85
2021/03/19 03:09:12;;;;;;;0.75;0.00;;;19.80;37.90;;;;;;5044411;28;20060;-83
2021/03/19 03:11:38;;;;;;;;;;;19.80;38.00;;;;;;5028038;28;20489;-83
2021/03/19 03:14:12;;;;;;;0.30;0.10;;;19.80;37.90;;;;;;5025785;28;19909;-84
2021/03/19 03:16:38;;;;;;;0.40;0.20;;;19.80;37.80;;;;;;5029096;28;20029;-85
2021/03/19 03:19:06;;;;;;;1.77;0.20;;;19.80;37.80;;;;;;5030407;28;20040;-84
2021/03/19 03:21:32;;;;;;;0.65;0.13;;;19.80;37.90;;;;;;5045237;28;20033;-83
2021/03/19 03:23:58;;;;;;;0.40;0.10;;;19.80;37.90;;;;;;5032488;28;20678;-84
2021/03/19 03:26:24;;;;;;;0.40;0.10;;;19.70;37.80;;;;;;5046223;28;20040;-83
2021/03/19 03:28:50;;;;;;;0.40;0.10;;;19.80;37.90;;;;;;5029802;28;20069;-85
2021/03/19 03:31:15;;;;;;;2.05;0.10;;;19.80;37.90;;;;;;5044640;28;20146;-83
2021/03/19 03:33:41;;;;;;;0.40;0.10;;;19.80;37.90;;;;;;5045008;28;20036;-85
2021/03/19 03:36:07;;;;;;;0.60;0.10;;;19.70;37.90;;;;;;5045886;28;20095;-85
2021/03/19 03:38:33;;;;;;;0.93;0.10;;;19.80;37.90;;;;;;5059895;28;20056;-84
2021/03/19 03:41:09;;;;;;;0.30;0.00;;;19.70;37.90;;;;;;5030781;28;20614;-82
2021/03/19 03:43:35;;;;;;;0.30;0.10;;;19.70;37.90;;;;;;5044568;28;20025;-83
2021/03/19 03:46:02;;;;;;;0.65;0.00;;;19.70;37.90;;;;;;5025934;28;20112;-83
2021/03/19 03:48:31;;;;;;;0.32;0.10;;;19.70;37.90;;;;;;5043555;28;20485;-83
2021/03/19 03:50:58;;;;;;;0.25;0.10;;;19.70;37.90;;;;;;5024237;28;20034;-83
2021/03/19 03:53:24;;;;;;;0.90;0.08;;;19.70;37.90;;;;;;5025317;28;20072;-83
2021/03/19 03:55:50;;;;;;;0.32;0.00;;;19.70;37.90;;;;;;5043934;28;20044;-82
2021/03/19 03:58:16;;;;;;;0.30;0.10;;;19.70;37.90;;;;;;5030793;28;20443;-83
2021/03/19 04:00:43;;;;;;;0.20;0.00;;;19.70;37.90;;;;;;5069459;28;20090;-84
2021/03/19 04:03:10;;;;;;;0.28;0.10;;;19.70;37.90;;;;;;5066722;28;20044;-82
2021/03/19 04:05:42;;;;;;;0.57;0.10;;;19.70;37.90;;;;;;5028940;28;20056;-82
2021/03/19 04:08:09;;;;;;;0.17;0.00;;;19.70;37.90;;;;;;5023533;28;20037;-82
2021/03/19 04:10:35;;;;;;;0.20;0.00;;;19.60;38.40;;;;;;5045276;28;20119;-82
2021/03/19 04:13:01;;;;;;;0.38;0.10;;;19.60;37.80;;;;;;5042260;28;20396;-83
2021/03/19 04:15:29;;;;;;;0.20;0.03;;;19.60;37.90;;;;;;5042507;28;20142;-86
2021/03/19 04:17:57;;;;;;;0.30;0.10;;;19.60;37.80;;;;;;5046184;28;20124;-84
2021/03/19 04:20:24;;;;;;;0.30;0.10;;;19.60;37.90;;;;;;5044310;28;20499;-83
2021/03/19 04:22:51;;;;;;;0.35;0.00;;;19.60;37.90;;;;;;5049008;28;20033;-85
2021/03/19 04:25:16;;;;;;;0.32;0.10;;;19.60;37.90;;;;;;5024455;28;20025;-85
2021/03/19 04:27:57;;;;;;;0.80;0.10;;;19.60;37.80;;;;;;5049226;28;20029;-87
2021/03/19 04:30:30;;;;;;;0.22;0.10;;;19.60;37.80;;;;;;5066965;28;20093;-88
2021/03/19 04:32:57;;;;;;;0.63;0.10;;;19.50;37.80;;;;;;5084142;28;20049;-85
2021/03/19 04:35:25;;;;;;;0.55;0.10;;;19.50;37.80;;;;;;5033640;28;20044;-83
2021/03/19 04:37:52;;;;;;;0.47;0.00;;;19.60;37.80;;;;;;5074874;28;20028;-90
2021/03/19 04:40:19;;;;;;;1.38;0.10;;;19.60;37.80;;;;;;5067549;28;20025;-88
2021/03/19 04:42:45;;;;;;;0.30;0.08;;;19.50;37.80;;;;;;5052822;28;20033;-82
2021/03/19 04:45:13;;;;;;;1.45;0.10;;;19.50;37.80;;;;;;5052278;28;20043;-82
2021/03/19 04:47:38;;;;;;;1.25;0.10;;;19.50;37.80;;;;;;5047166;28;20041;-85
2021/03/19 04:50:06;;;;;;;0.32;0.00;;;19.50;37.80;;;;;;5065069;28;20047;-82
2021/03/19 04:52:32;;;;;;;0.35;0.00;;;19.50;37.80;;;;;;5045749;28;20048;-84
2021/03/19 04:55:00;;;;;;;2.13;0.10;;;19.60;37.80;;;;;;5028658;28;20048;-84
2021/03/19 04:57:26;;;;;;;0.13;0.00;;;19.50;37.80;;;;;;5064729;28;20523;-85
2021/03/19 04:59:52;;;;;;;0.68;0.10;;;19.50;37.80;;;;;;5065285;28;20084;-82
2021/03/19 05:02:28;;;;;;;0.32;0.00;;;19.50;37.80;;;;;;5065594;28;20033;-82
2021/03/19 05:04:54;;;;;;;0.25;0.00;;;19.50;37.80;;;;;;5042455;28;20084;-84
2021/03/19 05:07:20;;;;;;;0.40;0.10;;;19.50;37.80;;;;;;5046560;28;20101;-82
2021/03/19 05:09:45;;;;;;;1.08;0.00;;;19.50;37.80;;;;;;5026212;28;20373;-82
2021/03/19 05:12:11;;;;;;;0.57;0.08;;;19.50;37.80;;;;;;5028941;28;20028;-82
2021/03/19 05:14:36;;;;;;;0.10;0.00;;;19.40;37.80;;;;;;5044877;28;20668;-84
2021/03/19 05:17:02;;;;;;;0.40;0.00;;;19.50;37.90;;;;;;5028506;28;20048;-82
2021/03/19 05:19:28;;;;;;;0.20;0.00;;;19.50;37.90;;;;;;5041986;28;20064;-85
2021/03/19 05:21:53;;;;;;;0.30;0.10;;;19.40;37.80;;;;;;5027939;28;20044;-82
2021/03/19 05:24:19;;;;;;;1.45;0.00;;;19.40;38.30;;;;;;5041066;28;20017;-82
2021/03/19 05:26:45;;;;;;;1.20;0.10;;;19.40;37.90;;;;;;5048116;28;20518;-82
2021/03/19 05:29:12;;;;;;;0.22;0.00;;;19.40;37.80;;;;;;5063278;28;20040;-83
2021/03/19 05:31:40;;;;;;;1.10;0.10;;;19.40;37.80;;;;;;5060270;28;20088;-85
2021/03/19 05:34:06;;;;;;;0.20;0.00;;;19.40;37.80;;;;;;5026001;28;20035;-82
2021/03/19 05:36:33;;;;;;;0.60;0.10;;;19.40;37.80;;;;;;5060313;28;20036;-83
2021/03/19 05:39:00;;;;;;;0.52;0.00;;;19.40;37.80;;;;;;5060128;28;20485;-83
2021/03/19 05:41:29;;;;;;;0.10;0.00;;;19.40;37.80;;;;;;5028395;28;20128;-83
2021/03/19 05:44:17;;;;;;;0.13;0.00;;;19.40;37.80;;;;;;5042059;28;20016;-85
2021/03/19 05:46:49;;;;;;;0.30;0.00;;;19.30;37.80;;;;;;5040052;28;20036;-82
2021/03/19 05:49:24;;;;;;;0.25;0.10;;;19.40;37.90;;;;;;5061368;28;20477;-81
2021/03/19 05:51:54;;;;;;;0.40;0.10;;;19.40;37.80;;;;;;5062073;28;20025;-84
2021/03/19 05:54:28;;;;;;;0.10;0.00;;;19.40;37.80;;;;;;5043527;28;20276;-84
2021/03/19 05:57:00;;;;;;;0.40;0.10;;;19.40;37.80;;;;;;5041139;28;20025;-82
2021/03/19 05:59:30;;;;;;;0.17;0.00;;;19.30;37.80;;;;;;5039750;28;20088;-83
2021/03/19 06:01:55;;;;;;;0.10;0.00;;;19.30;37.80;;;;;;5040541;28;20032;-83
2021/03/19 06:04:24;;;;;;;0.32;0.08;;;19.40;37.90;;;;;;5056552;28;20036;-82
2021/03/19 06:06:54;;;;;;;0.10;0.00;;;19.30;37.80;;;;;;5042641;28;20028;-83
2021/03/19 06:09:36;;;;;;;0.40;0.00;;;19.30;37.80;;;;;;5042901;28;20039;-82
2021/03/19 06:12:07;;;;;;;0.20;0.00;;;19.30;37.80;;;;;;5041471;28;20768;-84
2021/03/19 06:14:59;;;;;;;0.40;0.00;;;19.30;37.80;;;;;;5042183;28;20042;-82
2021/03/19 06:17:43;;;;;;;0.10;0.00;;;19.30;37.80;;;;;;5026093;28;20287;-83
2021/03/19 06:20:12;;;;;;;0.20;0.10;;;19.30;37.90;;;;;;5041429;28;20044;-82
2021/03/19 06:23:03;;;;;;;0.20;0.03;;;19.30;37.80;;;;;;5044156;28;20443;-81
2021/03/19 06:26:01;;;;;;;0.23;0.03;;;19.30;37.90;;;;;;5060271;28;20462;-81
2021/03/19 06:28:48;;;;;;;0.20;0.10;;;19.30;37.80;;;;;;5044331;28;20020;-83
2021/03/19 06:31:13;;;;;;;0.45;0.05;;;19.30;38.00;;;;;;5039870;28;20040;-82
2021/03/19 06:33:39;;;;;;;0.95;0.10;;;19.30;38.20;;;;;;5054211;28;20029;-82
2021/03/19 06:36:13;;;;;;;0.60;0.00;;;19.40;38.00;;;;;;5020010;28;20028;-84
2021/03/19 06:38:40;;;;;;;0.52;0.00;;;19.60;37.80;;;;;;5023897;28;20025;-85
2021/03/19 06:41:17;;;;;;;0.13;0.00;;;19.70;37.70;;;;;;5040122;28;20098;-83
2021/03/19 06:43:42;;;;;;;0.40;0.03;;;19.80;37.50;;;;;;5059426;28;20109;-83
2021/03/19 06:46:36;;;;;;;1.75;0.00;;;19.90;37.40;;;;;;5040136;28;20583;-83
2021/03/19 06:49:07;;;;;;;0.28;0.00;;;20.00;37.30;;;;;;5038615;28;20040;-83
2021/03/19 06:51:36;;;;;;;2.13;0.10;;;20.10;37.50;;;;;;5045299;28;20044;-85
2021/03/19 06:54:08;;;;;;;0.68;0.00;;;20.10;37.50;;;;;;5044506;28;20033;-86
2021/03/19 06:56:35;;;;;;;0.52;0.10;;;20.20;37.50;;;;;;5045601;28;20039;-85
2021/03/19 06:59:25;;;;;;;0.20;0.00;;;20.20;37.40;;;;;;5027893;28;20055;-84
2021/03/19 07:01:51;;;;;;;0.32;0.20;;;20.30;37.20;;;;;;5043507;28;20040;-83
2021/03/19 07:04:45;;;;;;;0.25;0.00;;;20.30;37.10;;;;;;5063304;28;20108;-84
2021/03/19 07:07:13;;;;;;;0.10;0.00;;;20.40;36.90;;;;;;5044525;28;20036;-86
2021/03/19 07:10:21;;;;;;;1.55;0.10;;;20.40;36.80;;;;;;5060994;28;20030;-80
2021/03/19 07:13:16;;;;;;;0.93;0.10;;;20.50;36.70;;;;;;5045620;28;20032;-81
2021/03/19 07:15:59;;;;;;;1.83;0.10;;;20.50;36.60;;;;;;5043731;28;20021;-82
2021/03/19 07:19:21;;;;;;;0.90;0.03;;;20.60;36.30;;;;;;5049655;28;20395;-83
2021/03/19 07:22:10;;;;;;;0.25;0.00;;;20.60;36.20;;;;;;4981646;28;20094;-86
2021/03/19 07:25:11;;;;;;;0.90;0.10;;;20.60;36.10;;;;;;4957291;28;20019;-83
2021/03/19 07:27:51;;;;;;;0.93;0.10;;;20.70;36.00;;;;;;4995972;28;20178;-83
2021/03/19 07:30:23;;;;;;;0.30;0.10;;;20.70;36.00;;;;;;5044965;28;20040;-82
2021/03/19 07:33:07;;;;;;;0.25;0.08;;;20.70;36.00;;;;;;5040135;28;20060;-82
2021/03/19 07:35:58;;;;;;;0.30;0.00;;;20.70;36.10;;;;;;5041089;28;20564;-83
2021/03/19 07:38:42;;;;;;;0.65;0.10;;;20.70;36.10;;;;;;5056118;28;20040;-82
2021/03/19 07:41:36;;;;;;;0.20;0.00;;;20.70;36.10;;;;;;5030986;28;20044;-84
2021/03/19 07:44:11;;;;;;;0.28;0.10;;;20.70;36.10;;;;;;5045881;28;20032;-81
2021/03/19 07:46:46;;;;;;;1.15;0.10;;;20.70;36.10;;;;;;5043686;28;20032;-86
2021/03/19 07:49:30;;;;;;;1.25;0.00;;;20.70;36.20;;;;;;5030139;28;20386;-83
2021/03/19 07:52:18;;;;;;;0.55;0.10;;;20.70;36.20;;;;;;5041720;28;20029;-82
2021/03/19 07:55:02;;;;;;;0.40;0.05;;;20.70;36.20;;;;;;5040122;28;20029;-82
2021/03/19 07:57:48;;;;;;;0.30;0.00;;;20.60;36.20;;;;;;5044788;28;20058;-83
2021/03/19 08:00:39;;;;;;;0.47;0.10;;;20.60;36.30;;;;;;5024381;28;20024;-83
2021/03/19 08:03:22;;;;;;;2.05;0.10;;;20.60;36.30;;;;;;5042050;28;20029;-85
2021/03/19 08:05:51;;;;;;;0.68;0.10;;;20.60;36.30;;;;;;5042373;28;20404;-85
2021/03/19 08:08:35;;;;;;;0.50;0.10;;;20.60;36.30;;;;;;5029087;28;20037;-86
2021/03/19 08:11:12;;;;;;;0.95;0.10;;;20.60;36.40;;;;;;5046161;28;20025;-85
2021/03/19 08:13:37;;;;;;;0.47;0.10;;;20.60;36.40;;;;;;5063808;28;20029;-85
2021/03/19 08:16:29;;;;;;;0.32;0.10;;;20.50;36.90;;;;;;5028413;28;20044;-85
2021/03/19 08:19:20;;;;;;;0.40;0.20;;;20.50;36.40;;;;;;5025053;28;20041;-86
2021/03/19 08:22:03;;;;;;;0.90;0.20;;;20.50;36.50;;;;;;5040869;28;20389;-85
2021/03/19 08:24:45;;;;;;;0.98;0.20;;;20.50;36.50;;;;;;5024205;28;20032;-85
2021/03/19 08:27:38;;;;;;;0.82;0.20;;;20.50;36.40;;;;;;5020681;28;20045;-86
2021/03/19 08:30:26;;;;;;;1.35;0.40;;;20.50;36.50;;;;;;5028121;28;20024;-85
2021/03/19 08:33:01;;;;;;;1.27;0.30;;;20.50;36.50;;;;;;5038789;28;20033;-86
2021/03/19 08:35:47;;;;;;;0.75;0.28;;;20.40;36.40;;;;;;5059251;28;20255;-85
2021/03/19 08:38:35;;;;;;;1.63;0.20;;;20.40;36.40;;;;;;5025691;28;20079;-85
2021/03/19 08:41:39;;;;;;;0.35;0.17;;;20.40;36.40;;;;;;5039016;28;20499;-85
2021/03/19 08:44:09;;;;;;;0.70;0.28;;;20.40;36.30;;;;;;5046836;28;20037;-85
2021/03/19 08:46:47;;;;;;;0.80;0.30;;;20.50;36.30;;;;;;5023287;28;20385;-86
2021/03/19 08:49:47;;;;;;;0.70;0.20;;;20.40;36.30;;;;;;5064930;28;20037;-85
2021/03/19 08:52:29;;;;;;;1.13;0.20;;;20.40;36.30;;;;;;5038006;28;20036;-86
2021/03/19 08:55:16;;;;;;;0.70;0.20;;;20.40;36.30;;;;;;5018920;28;20032;-85
2021/03/19 08:58:20;;;;;;;1.60;0.28;;;20.40;36.30;;;;;;5025636;28;20028;-83
2021/03/19 09:00:49;;;;;;;1.38;0.30;;;20.40;36.30;;;;;;5017024;28;20044;-84
2021/03/19 09:03:37;;;;;;;1.17;0.30;;;20.40;36.40;;;;;;5042457;28;20107;-86
2021/03/19 09:06:06;;;;;;;0.90;0.30;;;20.40;36.30;;;;;;5021578;28;20032;-84
2021/03/19 09:08:46;;;;;;;0.70;0.40;;;20.50;36.40;;;;;;5041525;28;20050;-85
2021/03/19 09:11:19;;;;;;;1.23;0.50;;;20.60;36.30;;;;;;5026815;28;20032;-85
2021/03/19 09:14:11;;;;;;;1.10;0.30;;;20.70;36.20;;;;;;5031317;28;20029;-85
2021/03/19 09:16:45;;;;;;;0.70;0.32;;;20.80;36.10;;;;;;5022184;28;20497;-84
2021/03/19 09:19:40;;;;;;;1.25;0.30;;;20.90;36.10;;;;;;5037375;28;20036;-85
2021/03/19 09:22:21;;;;;;;1.35;0.63;;;21.10;36.00;;;;;;5024084;28;20029;-84
2021/03/19 09:25:09;;;;;;;1.33;0.37;;;21.20;36.10;;;;;;5034922;28;20028;-84
2021/03/19 09:27:36;;;;;;;3.05;0.88;;;21.30;36.00;;;;;;5032319;28;20024;-84
2021/03/19 09:30:20;;;;;;;2.08;0.45;;;21.30;35.90;;;;;;5040503;28;20426;-85
2021/03/19 09:32:52;;;;;;;1.30;0.30;;;21.40;35.90;;;;;;5029483;28;20017;-85
2021/03/19 09:35:37;;;;;;;0.98;0.70;;;21.40;35.90;;;;;;5048532;28;20029;-86
2021/03/19 09:38:12;;;;;;;1.23;0.75;;;21.50;35.90;;;;;;5047799;28;20055;-85
2021/03/19 09:40:37;;;;;;;1.38;0.85;;;21.50;35.90;;;;;;5044527;28;20114;-85
2021/03/19 09:43:03;;;;;;;1.80;1.00;;;21.50;35.90;;;;;;5029877;28;20032;-85
2021/03/19 09:45:35;;;;;;;2.38;0.93;;;21.50;36.40;;;;;;5031628;28;20048;-85
2021/03/19 09:48:16;;;;;;;2.10;1.30;;;21.60;36.00;;;;;;5048994;28;20021;-85
2021/03/19 09:51:01;;;;;;;2.85;0.88;;;21.50;35.90;;;;;;5029829;28;20018;-84
2021/03/19 09:53:36;;;;;;;1.50;0.98;;;21.60;36.00;;;;;;5020001;28;20028;-85
2021/03/19 09:56:20;;;;;;;1.25;0.85;;;21.60;36.00;;;;;;5041978;28;20032;-85
2021/03/19 09:58:50;;;;;;;2.50;1.02;;;21.60;36.10;;;;;;5026152;28;20028;-84
2021/03/19 10:01:22;;;;;;;1.38;0.70;;;21.60;36.10;;;;;;5049840;28;20031;-86
2021/03/19 10:04:03;;;;;;;1.65;0.90;;;21.50;36.10;;;;;;5046425;28;20170;-87
2021/03/19 10:06:32;;;;;;;1.17;0.93;;;21.50;36.10;;;;;;5049418;28;20100;-84
2021/03/19 10:09:08;;;;;;;1.92;0.90;;;21.50;36.20;;;;;;5046617;28;20028;-88
2021/03/19 10:11:35;;;;;;;1.88;0.80;;;21.50;36.20;;;;;;5027076;28;20022;-87
2021/03/19 10:14:20;;;;;;;1.27;0.82;;;21.50;36.30;;;;;;5052656;28;20059;-86
2021/03/19 10:16:46;;;;;;;1.75;0.90;;;21.50;36.30;;;;;;5056640;28;20029;-85
2021/03/19 10:19:14;;;;;;;1.98;1.00;;;21.40;36.30;;;;;;5051778;28;20035;-85
2021/03/19 10:21:46;;;;;;;1.77;1.00;;;21.50;36.40;;;;;;5048959;28;20020;-85
2021/03/19 10:24:13;;;;;;;2.00;0.90;;;21.50;36.40;;;;;;5051981;28;20020;-85
2021/03/19 10:26:51;;;;;;;2.35;0.80;;;21.40;36.40;;;;;;5056126;28;20036;-85
2021/03/19 10:29:20;;;;;;;5.60;1.00;;;21.40;36.50;;;;;;5056252;28;20051;-85
2021/03/19 10:31:58;;;;;;;2.05;1.00;;;21.40;36.50;;;;;;5063903;28;20036;-85
2021/03/19 10:34:33;;;;;;;1.20;0.90;;;21.40;36.50;;;;;;5034385;28;20021;-85
2021/03/19 10:37:33;;;;;;;1.15;0.98;;;21.40;36.50;;;;;;5049803;28;20115;-85
2021/03/19 10:40:14;;;;;;;1.65;0.60;;;21.40;36.60;;;;;;5045166;28;20036;-85
2021/03/19 10:43:01;;;;;;;2.53;0.65;;;21.40;36.60;;;;;;5040593;28;20083;-85
2021/03/19 10:45:32;;;;;;;2.20;0.70;;;21.40;36.60;;;;;;5030822;28;20040;-86
2021/03/19 10:48:17;;;;;;;2.97;0.90;;;21.40;36.60;;;;;;5040576;28;20025;-85
2021/03/19 10:51:05;;;;;;;1.35;0.70;;;21.40;36.70;;;;;;5042295;28;20032;-85
2021/03/19 10:53:47;;;;;;;1.25;0.75;;;21.40;36.70;;;;;;5027423;28;20111;-83
2021/03/19 10:56:13;;;;;;;1.77;0.43;;;21.40;36.70;;;;;;5040740;28;20029;-84
2021/03/19 10:58:41;;;;;;;1.80;0.55;;;21.40;36.70;;;;;;5046943;28;20008;-85
2021/03/19 11:01:34;;;;;;;1.38;0.55;;;21.40;36.70;;;;;;5059668;28;20071;-85
2021/03/19 11:04:24;;;;;;;1.20;0.40;;;21.40;36.70;;;;;;5038411;28;20025;-85
2021/03/19 11:06:51;;;;;;;0.88;0.35;;;21.40;36.70;;;;;;5024181;28;20028;-85
2021/03/19 11:09:26;;;;;;;1.52;0.45;;;21.40;36.70;;;;;;5037779;28;20025;-85
2021/03/19 11:12:18;;;;;;;2.42;0.43;;;21.40;36.70;;;;;;5019319;28;20032;-86
2021/03/19 11:14:58;;;;;;;1.08;0.30;;;21.40;36.60;;;;;;5042689;28;20029;-85
2021/03/19 11:17:23;;;;;;;1.35;0.60;;;21.40;36.70;;;;;;5029567;28;20029;-85
2021/03/19 11:20:00;;;;;;;3.10;0.40;;;21.40;36.60;;;;;;5026964;28;20036;-85
2021/03/19 11:22:40;;;;;;;1.92;0.50;;;21.40;37.20;;;;;;5033897;28;20025;-85
2021/03/19 11:25:33;;;;;;;1.17;0.30;;;21.40;36.70;;;;;;5043970;28;20519;-85
2021/03/19 11:27:59;;;;;;;0.80;0.20;;;21.40;36.70;;;;;;5024318;28;20599;-85
2021/03/19 11:30:36;;;;;;;1.48;0.43;;;21.40;36.70;;;;;;5043269;28;20024;-85
2021/03/19 11:33:13;;;;;;;0.93;0.30;;;21.40;36.70;;;;;;5023452;28;20028;-85
2021/03/19 11:35:42;;;;;;;1.08;0.30;;;21.40;36.70;;;;;;5030528;28;20032;-85
2021/03/19 11:38:32;;;;;;;1.30;0.32;;;21.40;36.70;;;;;;5027455;28;20487;-85
2021/03/19 11:40:58;;;;;;;0.65;0.20;;;21.40;36.70;;;;;;5045611;28;20385;-84
2021/03/19 11:43:24;;;;;;;1.20;0.57;;;21.40;36.70;;;;;;5046383;28;20043;-85
2021/03/19 11:45:50;;;;;;;1.40;0.20;;;21.40;36.70;;;;;;5045195;28;20033;-85
2021/03/19 11:48:41;;;;;;;0.55;0.17;;;21.40;36.70;;;;;;5028826;28;20357;-86
2021/03/19 11:51:15;;;;;;;2.45;0.30;;;21.40;36.70;;;;;;5029616;28;20033;-85
2021/03/19 11:53:42;;;;;;;1.45;0.20;;;21.40;36.70;;;;;;5032915;28;20322;-85
2021/03/19 11:56:08;;;;;;;0.38;0.10;;;21.40;36.70;;;;;;5060177;28;20445;-85
2021/03/19 11:58:34;;;;;;;1.27;0.13;;;21.40;36.70;;;;;;5028438;28;20108;-85
2021/03/19 12:01:02;;;;;;;1.00;0.10;;;21.30;36.70;;;;;;5044273;28;20106;-85
2021/03/19 12:03:31;;;;;;;2.00;0.20;;;21.40;36.70;;;;;;5047040;28;20028;-85
2021/03/19 12:05:57;;;;;;;0.90;0.10;;;21.40;36.70;;;;;;5030950;28;20036;-85
2021/03/19 12:08:24;;;;;;;1.42;0.20;;;21.40;36.70;;;;;;5046949;28;20712;-85
2021/03/19 12:10:50;;;;;;;1.27;0.20;;;21.40;36.70;;;;;;5046859;28;20064;-85
2021/03/19 12:13:16;;;;;;;1.15;0.10;;;21.40;36.70;;;;;;5048247;28;20117;-85
2021/03/19 12:15:43;;;;;;;1.30;0.10;;;21.40;36.80;;;;;;5047712;28;20067;-85
2021/03/19 12:18:10;;;;;;;0.77;0.10;;;21.40;36.70;;;;;;5044690;28;20040;-85
2021/03/19 12:20:35;;;;;;;0.52;0.20;;;21.40;36.70;;;;;;5033057;28;20036;-85
2021/03/19 12:23:21;;;;;;;0.95;0.10;;;21.50;36.60;;;;;;5066737;28;20122;-85
2021/03/19 12:26:06;;;;;;;0.50;0.10;;;21.60;36.40;;;;;;5059514;28;20035;-86
2021/03/19 12:28:32;;;;;;;0.35;0.10;;;21.70;36.30;;;;;;5047643;28;20025;-85
2021/03/19 12:30:58;;;;;;;1.35;0.10;;;21.80;36.20;;;;;;5027685;28;20028;-85
2021/03/19 12:33:28;;;;;;;0.30;0.10;;;21.90;36.20;;;;;;5041823;28;20512;-85
2021/03/19 12:35:54;;;;;;;0.98;0.10;;;21.90;36.20;;;;;;5041226;28;20024;-85
2021/03/19 12:38:20;;;;;;;0.30;0.10;;;22.00;36.10;;;;;;5063276;28;20033;-86
2021/03/19 12:40:46;;;;;;;0.30;0.10;;;22.10;36.00;;;;;;5027368;28;20032;-85
2021/03/19 12:43:13;;;;;;;0.85;0.10;;;22.20;36.00;;;;;;5029745;28;20913;-85
2021/03/19 12:45:39;;;;;;;0.35;0.10;;;22.20;35.90;;;;;;5042995;28;20032;-85
2021/03/19 12:48:05;;;;;;;3.30;0.10;;;22.20;35.90;;;;;;5029573;28;20017;-85
2021/03/19 12:50:32;;;;;;;1.00;0.10;;;22.20;35.80;;;;;;5024386;28;20028;-85
2021/03/19 12:52:59;;;;;;;0.40;0.10;;;22.30;35.80;;;;;;5041997;28;20029;-85
2021/03/19 12:55:26;;;;;;;0.30;0.10;;;22.30;35.80;;;;;;5044013;28;20079;-85
2021/03/19 12:57:52;;;;;;;0.38;0.10;;;22.40;35.80;;;;;;5043309;28;20103;-85
2021/03/19 13:00:20;;;;;;;0.55;0.10;;;22.40;35.80;;;;;;5059198;28;20032;-85
2021/03/19 13:02:46;;;;;;;0.38;0.10;;;22.30;35.70;;;;;;5040913;28;20033;-85
2021/03/19 13:05:14;;;;;;;0.30;0.00;;;22.30;35.80;;;;;;5045010;28;20019;-85
2021/03/19 13:07:40;;;;;;;1.25;0.10;;;22.40;35.80;;;;;;5045873;28;20055;-85
2021/03/19 13:10:06;;;;;;;0.20;0.00;;;22.30;35.70;;;;;;5045121;28;20112;-85
2021/03/19 13:12:32;;;;;;;0.20;0.08;;;22.40;35.90;;;;;;5046199;28;20492;-85
2021/03/19 13:14:58;;;;;;;0.65;0.10;;;22.30;35.90;;;;;;5042710;28;20159;-85
2021/03/19 13:17:23;;;;;;;1.75;0.10;;;22.30;35.90;;;;;;5044650;28;20032;-85
2021/03/19 13:19:49;;;;;;;0.20;0.05;;;22.30;35.90;;;;;;5058737;28;20376;-85
2021/03/19 13:22:15;;;;;;;0.38;0.10;;;22.30;35.90;;;;;;5044530;28;20037;-85
2021/03/19 13:24:40;;;;;;;0.40;0.10;;;22.20;35.90;;;;;;5026808;28;20455;-85